Terminal Aerodrome Forecast
Issued by NWS

Home | Current Version | Previous Version | Graphics & Text | Print | Product List | Glossary Off
Versions: 1 2 3 4 5 6 7 8 9 10 11 12 13 14 15 16 17 18 19

000
FTUS43 KGRB 260523
TAFRHI
TAF
KRHI 260523Z 2606/2706 09006KT 6SM -DZ BR OVC006
      TEMPO 2606/2610 3SM -FZRA BR OVC004
     FM261300 08005KT 2SM -DZ BR OVC003
     FM261800 04004KT 5SM BR OVC004
     FM262300 36004KT 4SM BR OVC004=

USA.gov is the U.S. government's official web portal to all federal, state and local government web resources and services.